Time;durP1;ratioP1;P1;durP2;ratioP2;P2;SDS_P1;SDS_P2;PMS_P1;PMS_P2;Temp;Humidity;BMP_temperature;BMP_pressure;BME280_temperature;BME280_humidity;BME280_pressure;Samples;Min_cycle;Max_cycle;Signal;HPM_P1;HPM_P2
2021/01/19 00:00:36;;;;;;;76.47;30.67;;;;;;;-1.06;87.23;100308.72;120089;1150;27324;-64
2021/01/19 00:03:07;;;;;;;68.67;28.00;;;;;;;-1.05;87.63;100310.26;120013;1150;22928;-60
2021/01/19 00:05:37;;;;;;;64.10;26.27;;;;;;;-1.01;87.22;100310.23;120119;1150;22931;-60
2021/01/19 00:08:09;;;;;;;67.00;26.85;;;;;;;-0.97;87.71;100311.78;120106;1150;27241;-63
2021/01/19 00:10:39;;;;;;;60.90;23.93;;;;;;;-0.95;87.70;100306.68;120062;1151;22944;-60
2021/01/19 00:13:09;;;;;;;66.35;25.08;;;;;;;-0.91;87.61;100303.94;120077;1151;22974;-61
2021/01/19 00:15:39;;;;;;;62.08;23.80;;;;;;;-0.89;87.47;100296.86;120006;1150;26092;-63
2021/01/19 00:18:10;;;;;;;51.17;20.97;;;;;;;-0.83;87.74;100299.98;120194;1150;22915;-63
2021/01/19 00:20:41;;;;;;;52.43;20.83;;;;;;;-0.79;87.35;100297.99;120060;1150;24707;-63
2021/01/19 00:23:12;;;;;;;;;;;;;;;-0.74;87.96;100294.02;120021;1151;23087;-64
2021/01/19 00:25:43;;;;;;;52.93;19.33;;;;;;;-0.70;88.03;100292.07;120009;1149;23107;-62
2021/01/19 00:28:14;;;;;;;48.90;18.20;;;;;;;-0.68;88.01;100293.20;119952;1150;23361;-63
2021/01/19 00:30:44;;;;;;;42.40;17.40;;;;;;;-0.64;88.45;100288.47;119993;1150;22934;-63
2021/01/19 00:33:15;;;;;;;47.27;18.20;;;;;;;-0.60;88.06;100291.21;119769;1151;22970;-62
2021/01/19 00:35:45;;;;;;;46.20;18.65;;;;;;;-0.58;87.72;100278.64;119974;1151;22947;-63
2021/01/19 00:38:15;;;;;;;45.12;18.62;;;;;;;-0.54;87.40;100287.64;120029;1150;23032;-64
2021/01/19 00:40:46;;;;;;;46.80;16.82;;;;;;;-0.51;88.35;100284.08;119930;1151;22958;-63
2021/01/19 00:43:14;;;;;;;;;;;;;;;-0.46;87.73;100289.15;120201;1149;23029;-64
2021/01/19 00:45:44;;;;;;;40.90;15.70;;;;;;;-0.44;88.33;100284.04;120002;1151;21569;-62
2021/01/19 00:48:14;;;;;;;41.30;16.20;;;;;;;-0.41;87.99;100277.73;119970;1150;22934;-62
2021/01/19 00:50:44;;;;;;;41.05;15.63;;;;;;;-0.38;88.52;100282.42;119958;1151;23019;-61
2021/01/19 00:53:14;;;;;;;44.40;17.50;;;;;;;-0.36;87.85;100284.75;119988;1151;23043;-65
2021/01/19 00:55:44;;;;;;;45.20;18.65;;;;;;;-0.33;88.39;100281.97;119985;1150;23059;-62
2021/01/19 00:58:14;;;;;;;43.90;16.07;;;;;;;-0.28;87.95;100280.77;119990;1150;22948;-64
2021/01/19 01:00:44;;;;;;;38.58;15.45;;;;;;;-0.26;87.75;100279.18;119950;1151;23031;-63
2021/01/19 01:03:15;;;;;;;37.75;15.38;;;;;;;-0.20;88.28;100282.27;120044;1151;25825;-63
2021/01/19 01:05:46;;;;;;;36.63;14.33;;;;;;;-0.16;88.21;100283.00;120124;1149;23373;-63
2021/01/19 01:08:16;;;;;;;37.95;13.75;;;;;;;-0.12;87.51;100281.01;119977;1150;22930;-64
2021/01/19 01:10:47;;;;;;;35.75;14.85;;;;;;;-0.07;88.10;100286.07;120024;1149;23086;-64
2021/01/19 01:13:20;;;;;;;30.87;12.83;;;;;;;-0.04;87.84;100282.50;120052;1151;25548;-61
2021/01/19 01:15:50;;;;;;;34.30;12.17;;;;;;;-0.01;87.32;100284.45;120087;1150;26056;-63
2021/01/19 01:18:19;;;;;;;;;;;;;;;0.04;88.10;100275.00;120105;1150;26389;-63
2021/01/19 01:20:50;;;;;;;34.90;13.77;;;;;;;0.06;87.90;100276.16;120156;1150;23649;-62
2021/01/19 01:23:21;;;;;;;34.25;13.20;;;;;;;0.09;87.50;100277.28;120102;1149;23035;-64
2021/01/19 01:25:51;;;;;;;39.60;13.85;;;;;;;0.12;87.29;100269.03;120092;1150;23149;-62
2021/01/19 01:28:21;;;;;;;37.35;13.43;;;;;;;0.14;87.74;100266.66;120041;1150;27672;-62
2021/01/19 01:30:51;;;;;;;33.60;12.50;;;;;;;0.17;87.68;100254.06;120132;1150;23087;-63
2021/01/19 01:33:21;;;;;;;34.97;12.93;;;;;;;0.20;87.96;100261.49;119993;1150;23675;-63
2021/01/19 01:35:51;;;;;;;30.57;10.85;;;;;;;0.22;87.79;100256.38;120033;1149;26344;-63
2021/01/19 01:38:21;;;;;;;33.03;11.83;;;;;;;0.24;87.63;100257.53;119997;1151;23001;-62
2021/01/19 01:40:51;;;;;;;35.83;12.05;;;;;;;0.29;87.78;100253.56;120025;1150;28435;-62
2021/01/19 01:43:21;;;;;;;32.48;11.05;;;;;;;0.30;87.18;100249.61;120000;1150;22934;-62
2021/01/19 01:45:51;;;;;;;32.75;12.00;;;;;;;0.30;87.95;100250.39;120036;1150;22919;-64
2021/01/19 01:48:21;;;;;;;31.12;11.45;;;;;;;0.30;87.30;100253.14;120003;1149;25925;-62
2021/01/19 01:50:54;;;;;;;29.02;11.83;;;;;;;0.31;87.83;100251.94;120031;1151;22917;-62
2021/01/19 01:53:25;;;;;;;29.60;10.63;;;;;;;0.33;87.04;100246.06;120014;1151;23556;-62
2021/01/19 01:55:55;;;;;;;31.00;10.80;;;;;;;0.32;87.39;100239.78;119994;1151;22934;-62
2021/01/19 01:58:25;;;;;;;32.13;11.85;;;;;;;0.33;87.24;100241.33;119933;1151;23199;-63
2021/01/19 02:00:56;;;;;;;30.90;11.75;;;;;;;0.34;87.65;100240.16;120160;1149;24600;-64
2021/01/19 02:03:26;;;;;;;28.00;10.87;;;;;;;0.34;87.48;100231.91;120235;1151;22922;-65
2021/01/19 02:05:56;;;;;;;32.73;11.68;;;;;;;0.36;87.62;100228.75;120069;1150;24724;-62
2021/01/19 02:08:38;;;;;;;35.17;12.20;;;;;;;0.38;87.38;100235.39;120121;1151;22952;-63
2021/01/19 02:11:17;;;;;;;30.60;12.50;;;;;;;0.39;87.74;100231.47;120066;1151;23009;-62
2021/01/19 02:13:59;;;;;;;29.67;11.77;;;;;;;0.42;86.96;100229.85;120177;1149;22945;-63
2021/01/19 02:16:40;;;;;;;31.53;11.27;;;;;;;0.45;87.61;100234.53;120010;1151;22951;-62
2021/01/19 02:19:40;;;;;;;31.65;11.97;;;;;;;0.46;86.91;100238.83;120018;1151;23084;-63
2021/01/19 02:22:23;;;;;;;33.60;11.70;;;;;;;0.45;87.34;100235.32;119996;1151;22954;-63
2021/01/19 02:25:10;;;;;;;32.80;13.00;;;;;;;0.46;87.68;100236.86;120047;1151;24561;-63
2021/01/19 02:28:18;;;;;;;27.00;9.85;;;;;;;0.48;87.45;100233.70;119982;1151;22919;-63
2021/01/19 02:31:04;;;;;;;33.30;12.07;;;;;;;0.49;87.18;100233.31;119563;1154;25941;-64
2021/01/19 02:33:39;;;;;;;32.85;11.60;;;;;;;0.52;87.69;100229.73;119650;1153;22993;-63
2021/01/19 02:36:19;;;;;;;30.87;12.37;;;;;;;0.53;87.42;100234.05;119956;1153;22980;-63
2021/01/19 02:38:57;;;;;;;30.90;11.25;;;;;;;0.56;86.92;100235.20;119638;1153;22958;-63
2021/01/19 02:41:29;;;;;;;34.47;11.93;;;;;;;0.56;86.90;100235.95;119646;1154;23036;-62
2021/01/19 02:44:08;;;;;;;32.67;10.93;;;;;;;0.56;87.26;100238.70;119676;1153;22974;-62
2021/01/19 02:46:38;;;;;;;31.95;12.30;;;;;;;0.56;87.26;100238.70;119608;1154;22984;-63
2021/01/19 02:49:08;;;;;;;31.43;11.63;;;;;;;0.56;86.83;100235.20;119650;1154;24627;-63
2021/01/19 02:51:38;;;;;;;27.40;11.13;;;;;;;0.57;87.17;100232.03;119641;1153;23044;-63
2021/01/19 02:54:08;;;;;;;29.72;10.23;;;;;;;0.58;87.13;100233.57;119640;1153;22956;-63
2021/01/19 02:56:51;;;;;;;33.40;11.15;;;;;;;0.59;86.94;100229.65;119758;1154;22997;-63
2021/01/19 02:59:28;;;;;;;28.87;11.23;;;;;;;0.61;87.27;100223.73;119718;1153;23271;-63
2021/01/19 03:02:06;;;;;;;30.87;10.73;;;;;;;0.62;87.32;100230.80;119653;1154;23043;-64
2021/01/19 03:04:38;;;;;;;34.00;11.37;;;;;;;0.60;87.58;100227.69;119607;1153;23080;-62
2021/01/19 03:07:10;;;;;;;30.67;10.93;;;;;;;0.59;87.48;100235.14;119545;1153;26495;-61
2021/01/19 03:09:43;;;;;;;28.03;11.23;;;;;;;0.59;87.04;100232.39;120043;1151;26159;-63
2021/01/19 03:12:15;;;;;;;27.37;9.87;;;;;;;0.58;87.24;100236.31;119993;1150;22935;-61
2021/01/19 03:14:46;;;;;;;30.57;11.40;;;;;;;0.61;87.02;100235.51;120187;1150;27223;-61
2021/01/19 03:17:16;;;;;;;28.62;9.93;;;;;;;0.63;86.95;100237.83;119987;1151;26095;-61
2021/01/19 03:19:49;;;;;;;29.43;10.27;;;;;;;0.65;87.77;100232.70;120130;1151;22950;-62
2021/01/19 03:22:19;;;;;;;27.50;10.50;;;;;;;0.66;87.71;100235.03;120073;1150;22950;-63
2021/01/19 03:24:49;;;;;;;29.05;10.43;;;;;;;0.67;87.26;100235.81;119962;1151;26363;-61
2021/01/19 03:27:20;;;;;;;28.65;10.98;;;;;;;0.70;87.52;100232.27;120168;1151;23243;-63
2021/01/19 03:29:51;;;;;;;28.13;10.33;;;;;;;0.74;87.57;100231.03;120182;1151;22930;-64
2021/01/19 03:32:21;;;;;;;28.35;10.95;;;;;;;0.76;87.12;100227.86;120057;1151;22894;-63
2021/01/19 03:34:53;;;;;;;26.97;10.30;;;;;;;0.73;87.00;100226.71;120131;1151;23021;-61
2021/01/19 03:37:23;;;;;;;29.20;9.55;;;;;;;0.76;86.84;100234.14;119966;1150;22974;-61
2021/01/19 03:39:52;;;;;;;;;;;;;;;0.80;87.52;100229.38;119986;1151;22991;-62
2021/01/19 03:42:22;;;;;;;32.60;10.40;;;;;;;0.83;87.32;100239.52;119962;1151;21629;-61
2021/01/19 03:44:53;;;;;;;27.22;9.93;;;;;;;0.85;86.73;100233.61;120055;1151;23015;-61
2021/01/19 03:47:23;;;;;;;24.63;9.50;;;;;;;0.86;87.63;100237.92;120066;1150;23264;-61
2021/01/19 03:49:52;;;;;;;23.95;8.20;;;;;;;0.87;87.09;100236.72;119957;1151;22999;-61
2021/01/19 03:52:22;;;;;;;21.27;7.13;;;;;;;0.88;87.57;100237.50;119982;1151;22968;-61
2021/01/19 03:54:52;;;;;;;20.20;6.50;;;;;;;0.87;87.34;100231.22;120121;1151;23050;-61
2021/01/19 03:57:22;;;;;;;23.62;7.47;;;;;;;0.89;86.89;100231.59;119993;1150;23040;-61
2021/01/19 03:59:52;;;;;;;17.60;4.97;;;;;;;0.91;87.39;100240.20;119964;1151;22949;-61
2021/01/19 04:02:22;;;;;;;19.50;5.80;;;;;;;0.93;87.43;100228.81;120053;1150;27302;-63
2021/01/19 04:04:53;;;;;;;19.70;4.65;;;;;;;0.94;87.03;100230.35;119956;1150;27238;-61
2021/01/19 04:07:24;;;;;;;13.75;4.25;;;;;;;0.94;87.00;100231.14;120061;1151;22955;-61
2021/01/19 04:09:54;;;;;;;16.80;4.25;;;;;;;0.95;87.12;100223.67;120033;1149;22961;-61
2021/01/19 04:12:25;;;;;;;17.67;4.83;;;;;;;0.95;87.60;100229.95;120192;1149;26715;-64
2021/01/19 04:14:55;;;;;;;14.25;3.62;;;;;;;0.99;87.08;100230.69;120013;1151;22919;-61
2021/01/19 04:17:24;;;;;;;11.78;2.60;;;;;;;0.98;87.22;100222.83;120024;1151;25706;-62
2021/01/19 04:19:54;;;;;;;15.07;3.13;;;;;;;0.98;87.11;100223.62;119961;1150;23107;-62
2021/01/19 04:22:25;;;;;;;12.60;3.05;;;;;;;0.96;87.66;100215.00;120014;1150;24558;-64
2021/01/19 04:24:54;;;;;;;;;;;;;;;0.96;87.57;100217.75;120155;1150;23008;-61
2021/01/19 04:27:24;;;;;;;12.23;2.93;;;;;;;0.98;87.99;100223.62;119987;1151;21562;-62
2021/01/19 04:29:54;;;;;;;13.40;2.90;;;;;;;0.98;87.87;100229.11;119967;1151;23016;-62
2021/01/19 04:32:24;;;;;;;12.07;2.75;;;;;;;0.98;87.86;100226.36;120186;1151;22977;-62
2021/01/19 04:34:54;;;;;;;12.50;3.20;;;;;;;0.99;87.47;100224.40;120029;1151;22948;-62
2021/01/19 04:37:25;;;;;;;10.30;2.87;;;;;;;1.00;87.59;100225.94;120000;1151;23058;-63
2021/01/19 04:39:56;;;;;;;9.37;2.33;;;;;;;1.01;87.39;100227.52;119890;1150;26456;-64
2021/01/19 04:42:28;;;;;;;10.95;2.65;;;;;;;1.02;87.33;100227.09;119941;1151;22934;-62
2021/01/19 04:44:59;;;;;;;9.60;2.47;;;;;;;1.03;87.60;100225.91;120053;1151;24613;-63
2021/01/19 04:47:32;;;;;;;9.30;1.90;;;;;;;1.04;87.34;100224.70;120062;1150;28937;-63
2021/01/19 04:50:06;;;;;;;7.85;2.15;;;;;;;1.05;87.86;100228.23;119981;1149;25953;-63
2021/01/19 04:52:36;;;;;;;8.30;2.05;;;;;;;1.06;88.01;100230.56;120007;1150;23399;-63
2021/01/19 04:55:08;;;;;;;9.30;2.20;;;;;;;1.09;87.97;100226.22;119963;1151;22899;-63
2021/01/19 04:57:40;;;;;;;7.60;2.17;;;;;;;1.11;87.86;100229.33;120265;1149;22923;-63
2021/01/19 05:00:14;;;;;;;8.90;2.10;;;;;;;1.12;87.61;100223.41;119731;1151;27448;-64
2021/01/19 05:03:17;;;;;;;8.77;1.67;;;;;;;1.13;87.57;100230.47;120062;1151;22945;-63
2021/01/19 05:06:01;;;;;;;7.33;1.93;;;;;;;1.15;87.91;100219.84;120163;1150;22902;-65
2021/01/19 05:09:05;;;;;;;9.37;2.20;;;;;;;1.17;87.88;100224.91;120053;1150;22974;-63
2021/01/19 05:11:49;;;;;;;10.27;2.27;;;;;;;1.18;87.80;100227.23;119549;1154;23032;-65
2021/01/19 05:14:21;;;;;;;8.20;1.80;;;;;;;1.22;87.75;100224.45;119536;1154;22964;-64
2021/01/19 05:16:52;;;;;;;11.33;2.33;;;;;;;1.22;87.33;100229.95;119806;1153;24473;-63
2021/01/19 05:19:23;;;;;;;7.90;1.80;;;;;;;1.22;87.68;100219.71;119678;1153;23367;-63
2021/01/19 05:21:54;;;;;;;10.35;3.15;;;;;;;1.25;87.57;100223.61;119633;1153;23109;-62
2021/01/19 05:24:25;;;;;;;8.33;1.90;;;;;;;1.25;87.59;100216.14;119570;1154;24632;-62
2021/01/19 05:26:54;;;;;;;;;;;;;;;1.26;87.53;100217.69;119689;1153;22937;-62
2021/01/19 05:29:24;;;;;;;12.40;2.30;;;;;;;1.27;87.29;100218.47;119577;1154;21948;-64
2021/01/19 05:31:55;;;;;;;9.13;2.45;;;;;;;1.28;87.63;100212.55;119573;1153;22948;-64
2021/01/19 05:34:26;;;;;;;11.30;2.35;;;;;;;1.28;87.87;100214.54;120361;1113;22948;-62
2021/01/19 05:36:56;;;;;;;10.75;1.80;;;;;;;1.29;87.69;100216.08;119612;1153;23002;-62
2021/01/19 05:39:26;;;;;;;11.20;2.02;;;;;;;1.29;87.38;100222.36;119810;1153;23010;-63
2021/01/19 05:41:57;;;;;;;10.00;2.22;;;;;;;1.29;87.30;100219.61;121036;1153;22885;-62
2021/01/19 05:44:29;;;;;;;11.73;2.50;;;;;;;1.31;87.09;100219.97;119862;1153;26162;-63
2021/01/19 05:47:06;;;;;;;10.40;2.70;;;;;;;1.33;87.67;100211.30;119772;1153;22942;-63
2021/01/19 05:49:40;;;;;;;12.70;2.65;;;;;;;1.34;87.62;100212.87;119986;1151;22939;-62
2021/01/19 05:52:13;;;;;;;11.80;2.35;;;;;;;1.35;87.72;100209.69;120125;1150;22919;-63
2021/01/19 05:54:45;;;;;;;11.30;2.73;;;;;;;1.38;87.34;100219.09;120287;1151;22964;-62
2021/01/19 05:57:17;;;;;;;12.33;3.10;;;;;;;1.39;87.82;100210.41;120236;1150;25967;-63
2021/01/19 05:59:50;;;;;;;11.73;3.13;;;;;;;1.40;87.30;100216.70;120159;1151;22939;-64
2021/01/19 06:02:22;;;;;;;10.90;3.00;;;;;;;1.39;87.52;100220.63;120018;1151;23005;-64
2021/01/19 06:04:54;;;;;;;11.53;2.50;;;;;;;1.40;87.67;100213.95;120174;1151;22947;-62
2021/01/19 06:07:26;;;;;;;11.37;2.47;;;;;;;1.40;87.60;100214.73;120233;1150;22961;-63
2021/01/19 06:10:07;;;;;;;13.10;3.43;;;;;;;1.41;87.11;100215.48;120145;1150;26376;-62
2021/01/19 06:12:37;;;;;;;12.28;3.90;;;;;;;1.41;87.24;100213.52;120133;1151;22944;-62
2021/01/19 06:15:10;;;;;;;17.35;5.03;;;;;;;1.44;87.73;100209.16;120325;1150;26500;-63
2021/01/19 06:17:40;;;;;;;17.90;5.30;;;;;;;1.48;87.65;100218.92;120182;1150;22939;-62
2021/01/19 06:20:12;;;;;;;19.77;5.23;;;;;;;1.52;87.40;100214.14;120128;1150;27334;-62
2021/01/19 06:22:43;;;;;;;15.07;4.90;;;;;;;1.51;87.49;100209.81;120101;1151;22939;-63
2021/01/19 06:25:15;;;;;;;19.57;6.23;;;;;;;1.55;87.71;100218.78;120041;1151;23018;-63
2021/01/19 06:27:45;;;;;;;17.97;6.13;;;;;;;1.60;87.37;100212.03;120278;1150;23058;-62
2021/01/19 06:30:17;;;;;;;16.48;5.55;;;;;;;1.59;86.88;100211.25;120095;1150;22933;-62
2021/01/19 06:32:49;;;;;;;17.53;5.50;;;;;;;1.60;87.02;100215.56;120269;1150;22945;-61
2021/01/19 06:35:22;;;;;;;18.77;5.40;;;;;;;1.64;87.03;100210.00;120273;1149;26408;-62
2021/01/19 06:37:54;;;;;;;18.43;6.17;;;;;;;1.63;87.45;100211.20;120160;1149;22915;-64
2021/01/19 06:40:27;;;;;;;27.80;9.63;;;;;;;1.62;87.27;100204.92;120120;1151;22939;-62
2021/01/19 06:42:59;;;;;;;58.53;17.93;;;;;;;1.67;87.10;100202.87;120731;1149;23046;-62
2021/01/19 06:45:31;;;;;;;66.73;22.80;;;;;;;1.68;86.67;100199.70;120782;1149;22968;-62
2021/01/19 06:48:03;;;;;;;42.07;14.20;;;;;;;1.69;87.15;100206.77;120503;1149;22928;-62
2021/01/19 06:50:36;;;;;;;39.67;14.97;;;;;;;1.74;87.06;100208.27;120172;1150;23037;-63
2021/01/19 06:53:15;;;;;;;35.85;12.10;;;;;;;1.76;87.23;100205.88;120170;1150;23096;-62
2021/01/19 06:56:01;;;;;;;32.10;10.90;;;;;;;1.77;86.77;100204.66;120130;1150;23011;-62
2021/01/19 06:58:49;;;;;;;27.30;8.30;;;;;;;1.78;86.91;100206.98;119994;1151;22932;-62
2021/01/19 07:01:21;;;;;;;26.97;8.80;;;;;;;1.83;87.06;100198.26;120301;1150;22955;-63
2021/01/19 07:04:07;;;;;;;28.10;8.80;;;;;;;1.87;87.11;100198.19;120006;1151;24611;-63
2021/01/19 07:07:04;;;;;;;24.80;7.25;;;;;;;1.90;86.84;100197.36;119980;1150;26099;-63
2021/01/19 07:10:13;;;;;;;25.87;8.60;;;;;;;1.92;86.63;100201.25;120308;1151;22968;-62
2021/01/19 07:13:00;;;;;;;25.67;8.87;;;;;;;1.93;86.35;100191.78;119586;1153;27375;-62
2021/01/19 07:16:07;;;;;;;31.03;8.47;;;;;;;1.97;86.14;100192.48;119659;1153;23087;-62
2021/01/19 07:19:06;;;;;;;24.13;8.17;;;;;;;1.95;86.36;100185.84;119584;1152;26382;-65
2021/01/19 07:22:04;;;;;;;28.47;8.97;;;;;;;1.96;86.08;100184.66;119224;1154;22984;-65
2021/01/19 07:24:42;;;;;;;25.40;9.63;;;;;;;1.99;86.17;100179.08;119449;1154;22976;-65
2021/01/19 07:27:15;;;;;;;22.53;7.07;;;;;;;1.99;86.32;100181.05;119430;1154;23202;-65
2021/01/19 07:29:46;;;;;;;23.80;7.40;;;;;;;1.96;86.61;100184.66;119656;1154;27803;-67
2021/01/19 07:32:24;;;;;;;27.10;7.10;;;;;;;1.91;86.41;100185.92;119390;1154;23024;-65
2021/01/19 07:34:55;;;;;;;26.00;7.40;;;;;;;1.92;86.12;100187.48;119251;1154;22946;-65
2021/01/19 07:37:34;;;;;;;24.30;8.07;;;;;;;1.96;86.37;100190.16;119925;1153;22923;-66
2021/01/19 07:40:16;;;;;;;28.27;7.70;;;;;;;2.01;86.46;100200.67;119656;1154;22979;-65
2021/01/19 07:42:47;;;;;;;23.80;7.07;;;;;;;2.04;86.33;100192.36;119235;1154;22932;-64
2021/01/19 07:45:17;;;;;;;;;;;;;;;2.07;86.12;100194.25;119431;1153;22959;-66
2021/01/19 07:47:49;;;;;;;27.57;9.03;;;;;;;2.07;86.77;100194.25;119466;1154;21750;-65
2021/01/19 07:50:20;;;;;;;30.33;10.40;;;;;;;2.14;86.50;100204.36;119426;1154;22938;-65
2021/01/19 07:52:54;;;;;;;25.97;9.17;;;;;;;2.12;86.50;100202.04;119493;1153;23106;-65
2021/01/19 07:55:25;;;;;;;27.63;8.90;;;;;;;2.13;85.94;100198.08;119474;1153;26045;-66
2021/01/19 07:57:56;;;;;;;25.48;8.43;;;;;;;2.16;85.96;100201.97;119438;1153;23045;-66
2021/01/19 08:00:27;;;;;;;30.50;9.20;;;;;;;2.15;85.72;100205.94;119866;1151;26381;-65
2021/01/19 08:03:04;;;;;;;28.25;9.55;;;;;;;2.16;85.81;100196.45;120571;1149;24503;-65
2021/01/19 08:05:35;;;;;;;27.17;9.07;;;;;;;2.16;86.10;100191.73;119816;1150;22932;-64
2021/01/19 08:08:15;;;;;;;28.30;9.30;;;;;;;2.18;85.72;100191.30;120004;1150;26498;-64
2021/01/19 08:10:57;;;;;;;30.43;10.63;;;;;;;2.15;85.92;100189.41;119773;1150;22943;-66
2021/01/19 08:13:27;;;;;;;25.00;8.90;;;;;;;2.17;85.62;100198.02;120430;1150;22944;-64
2021/01/19 08:16:05;;;;;;;30.55;10.88;;;;;;;2.22;85.79;100194.76;119811;1151;23064;-66
2021/01/19 08:18:41;;;;;;;27.70;10.95;;;;;;;2.22;85.96;100195.55;120124;1150;22961;-65
2021/01/19 08:21:12;;;;;;;26.77;11.93;;;;;;;2.27;86.26;100195.06;120564;1150;24591;-65
2021/01/19 08:23:43;;;;;;;31.20;11.20;;;;;;;2.29;85.57;100191.88;119886;1149;23104;-65
2021/01/19 08:26:13;;;;;;;32.33;11.67;;;;;;;2.27;85.64;100192.31;120438;1150;23062;-66
2021/01/19 08:28:44;;;;;;;26.75;10.03;;;;;;;2.30;85.81;100185.94;120063;1149;22961;-64
2021/01/19 08:31:17;;;;;;;28.00;12.18;;;;;;;2.34;86.13;100189.39;120101;1150;22957;-66
2021/01/19 08:33:51;;;;;;;26.43;10.10;;;;;;;2.39;85.89;100179.86;120028;1150;22929;-65
2021/01/19 08:36:22;;;;;;;33.27;9.67;;;;;;;2.42;85.74;100181.78;120450;1151;22925;-65
2021/01/19 08:38:54;;;;;;;25.90;9.95;;;;;;;2.45;85.50;100178.94;119914;1149;26102;-64
2021/01/19 08:41:24;;;;;;;30.50;10.45;;;;;;;2.51;85.41;100181.18;119933;1151;22931;-65
2021/01/19 08:43:54;;;;;;;;;;;;;;;2.51;85.22;100184.72;120509;1150;22939;-64
2021/01/19 08:46:26;;;;;;;29.00;10.17;;;;;;;2.51;85.02;100172.91;119778;1150;26205;-65
2021/01/19 08:49:01;;;;;;;26.63;10.00;;;;;;;2.50;85.20;100176.89;120966;1150;27050;-64
2021/01/19 08:51:32;;;;;;;29.77;11.57;;;;;;;2.50;84.88;100172.16;120419;1150;26370;-66
2021/01/19 08:54:07;;;;;;;28.73;11.10;;;;;;;2.51;84.72;100173.70;121110;1150;23116;-65
2021/01/19 08:56:41;;;;;;;31.93;12.73;;;;;;;2.53;84.79;100174.05;119899;1150;22938;-66
2021/01/19 08:59:13;;;;;;;34.27;12.10;;;;;;;2.57;84.74;100166.48;120865;1150;22986;-65
2021/01/19 09:01:50;;;;;;;41.15;14.00;;;;;;;2.64;85.04;100168.31;119781;1150;24776;-65
2021/01/19 09:04:25;;;;;;;34.23;13.43;;;;;;;2.66;84.75;100158.41;120114;1150;23512;-65
2021/01/19 09:07:04;;;;;;;42.10;13.97;;;;;;;2.74;85.19;100159.02;120389;1150;23079;-64
2021/01/19 09:09:34;;;;;;;41.10;14.65;;;;;;;2.81;84.91;100159.66;119972;1150;23749;-64
2021/01/19 09:12:15;;;;;;;38.03;14.03;;;;;;;2.85;84.91;100149.33;120205;1150;22968;-65
2021/01/19 09:14:50;;;;;;;33.88;13.25;;;;;;;2.91;84.43;100149.58;120102;1151;22940;-65
2021/01/19 09:17:27;;;;;;;32.90;12.30;;;;;;;2.96;84.31;100147.08;120177;1150;22992;-65
2021/01/19 09:20:05;;;;;;;32.55;13.05;;;;;;;3.01;84.66;100143.04;120290;1150;22954;-64
2021/01/19 09:22:35;;;;;;;34.27;14.10;;;;;;;3.07;84.33;100139.34;120777;1150;22921;-64
2021/01/19 09:25:08;;;;;;;37.30;13.73;;;;;;;3.10;84.59;100141.22;120153;1150;24015;-65
2021/01/19 09:27:38;;;;;;;34.20;12.67;;;;;;;3.17;84.72;100137.52;120153;1150;26907;-65
2021/01/19 09:30:11;;;;;;;26.27;10.40;;;;;;;3.25;84.24;100130.62;120046;1150;22977;-65
2021/01/19 09:32:43;;;;;;;27.53;10.33;;;;;;;3.29;84.44;100131.30;120190;1149;26370;-64
2021/01/19 09:35:15;;;;;;;24.37;9.07;;;;;;;3.32;84.04;100121.39;120517;1150;28360;-64
2021/01/19 09:37:46;;;;;;;27.03;10.30;;;;;;;3.38;84.33;100127.94;120697;1150;22944;-65
2021/01/19 09:40:17;;;;;;;;;;;;;;;3.42;84.05;100125.86;119791;1150;22963;-64
2021/01/19 09:42:48;;;;;;;29.83;10.03;;;;;;;3.43;83.91;100116.39;119960;1150;21570;-65
2021/01/19 09:45:20;;;;;;;30.33;10.77;;;;;;;3.44;83.54;100112.41;120237;1149;24753;-64
2021/01/19 09:47:51;;;;;;;30.03;10.93;;;;;;;3.43;83.53;100116.39;120146;1151;28592;-65
2021/01/19 09:50:24;;;;;;;32.43;11.03;;;;;;;3.38;83.36;100106.64;120129;1150;23058;-64
2021/01/19 09:52:54;;;;;;;31.60;11.20;;;;;;;3.35;83.14;100098.47;120155;1150;22929;-64
2021/01/19 09:55:31;;;;;;;32.37;11.13;;;;;;;3.34;83.17;100099.66;120339;1150;23351;-64
2021/01/19 09:58:04;;;;;;;28.55;11.20;;;;;;;3.34;83.61;100099.66;121118;1150;23026;-64
2021/01/19 10:00:38;;;;;;;29.07;12.67;;;;;;;3.28;83.34;100100.20;120135;1150;26031;-64
2021/01/19 10:03:12;;;;;;;33.53;13.33;;;;;;;3.26;83.48;100096.31;120219;1150;27759;-64
2021/01/19 10:05:43;;;;;;;32.80;12.93;;;;;;;3.29;83.62;100087.94;120219;1150;22957;-64
2021/01/19 10:08:14;;;;;;;36.07;13.03;;;;;;;3.31;83.13;100095.78;120774;1149;22929;-64
2021/01/19 10:10:43;;;;;;;;;;;;;;;3.32;83.62;100089.06;120229;1150;22936;-64
2021/01/19 10:13:13;;;;;;;27.40;10.80;;;;;;;3.35;83.37;100081.91;119919;1150;21578;-64
2021/01/19 10:15:43;;;;;;;;;;;;;;;3.33;83.49;100076.05;120001;1150;22938;-64
2021/01/19 10:18:13;;;;;;;28.33;11.57;;;;;;;3.34;83.37;100072.06;120740;1150;21711;-64
2021/01/19 10:20:49;;;;;;;33.38;10.88;;;;;;;3.31;83.04;100064.67;120213;1151;23064;-65
2021/01/19 10:23:28;;;;;;;31.10;10.75;;;;;;;3.26;83.04;100063.99;120849;1149;23096;-64
2021/01/19 10:26:10;;;;;;;27.13;10.73;;;;;;;3.22;82.47;100052.28;120043;1150;23064;-63
2021/01/19 10:28:42;;;;;;;31.03;11.57;;;;;;;3.21;82.88;100047.17;120397;1151;27456;-65
2021/01/19 10:31:24;;;;;;;35.10;13.75;;;;;;;3.26;82.77;100054.94;120072;1150;27340;-63
2021/01/19 10:34:04;;;;;;;30.37;12.87;;;;;;;3.26;83.06;100046.66;120430;1149;23097;-63
2021/01/19 10:36:40;;;;;;;36.13;11.00;;;;;;;3.27;82.55;100035.19;120071;1151;22928;-63
2021/01/19 10:39:11;;;;;;;37.67;13.23;;;;;;;3.26;82.32;100036.41;119895;1150;22933;-64
2021/01/19 10:41:43;;;;;;;35.07;11.90;;;;;;;3.28;82.62;100036.75;120264;1150;22932;-64
2021/01/19 10:44:13;;;;;;;31.73;11.10;;;;;;;3.28;82.47;100033.20;120103;1150;23093;-64
2021/01/19 10:46:45;;;;;;;28.43;10.70;;;;;;;3.28;82.38;100031.23;120135;1151;22929;-63
2021/01/19 10:49:17;;;;;;;27.75;11.15;;;;;;;3.27;82.47;100015.88;119921;1150;26593;-63
2021/01/19 10:51:51;;;;;;;24.77;9.43;;;;;;;3.30;82.40;100022.51;120177;1151;23084;-64
2021/01/19 10:54:22;;;;;;;24.60;10.50;;;;;;;3.33;82.53;100016.13;120344;1150;22968;-64
2021/01/19 10:57:07;;;;;;;25.40;9.13;;;;;;;3.35;82.51;100010.95;120457;1150;24611;-64
2021/01/19 10:59:38;;;;;;;22.67;8.93;;;;;;;3.35;82.26;100004.66;120022;1150;22939;-64
2021/01/19 11:02:08;;;;;;;23.10;9.63;;;;;;;3.38;82.32;100004.55;120882;1150;23132;-64
2021/01/19 11:04:38;;;;;;;30.95;9.65;;;;;;;3.40;82.40;99996.61;120056;1150;23179;-63
2021/01/19 11:07:08;;;;;;;27.30;9.80;;;;;;;3.42;81.95;99998.92;119952;1151;23297;-64
2021/01/19 11:09:38;;;;;;;28.00;9.30;;;;;;;3.39;81.65;99995.08;120025;1151;24608;-62
2021/01/19 11:12:09;;;;;;;27.60;10.38;;;;;;;3.37;81.55;100000.26;119860;1151;24835;-63
2021/01/19 11:14:39;;;;;;;25.00;9.53;;;;;;;3.38;81.66;99998.25;120299;1150;24605;-65
2021/01/19 11:17:10;;;;;;;26.93;9.25;;;;;;;3.38;81.56;99987.99;120232;1150;22961;-65
2021/01/19 11:19:40;;;;;;;25.40;9.93;;;;;;;3.40;81.68;99993.84;119864;1150;23149;-65
2021/01/19 11:22:11;;;;;;;26.95;10.00;;;;;;;3.42;81.66;99983.15;119899;1151;22952;-64
2021/01/19 11:24:42;;;;;;;25.30;10.00;;;;;;;3.44;81.37;99983.48;119940;1149;23370;-62
2021/01/19 11:27:13;;;;;;;26.40;9.90;;;;;;;3.45;81.50;99970.47;119973;1150;22960;-64
2021/01/19 11:29:43;;;;;;;33.57;10.07;;;;;;;3.47;81.61;99971.59;120142;1150;23078;-64
2021/01/19 11:32:13;;;;;;;25.65;8.33;;;;;;;3.45;81.41;99965.73;119969;1150;22940;-64
2021/01/19 11:34:45;;;;;;;26.95;8.50;;;;;;;3.47;81.33;99963.31;120461;1150;23094;-65
2021/01/19 11:37:16;;;;;;;26.00;9.60;;;;;;;3.48;81.29;99955.78;120335;1149;23027;-64
2021/01/19 11:39:47;;;;;;;27.33;10.73;;;;;;;3.47;81.21;99945.97;120139;1150;22954;-64
2021/01/19 11:42:17;;;;;;;24.30;8.45;;;;;;;3.45;81.01;99935.38;120096;1151;23069;-64
2021/01/19 11:44:47;;;;;;;24.72;8.90;;;;;;;3.43;81.03;99929.52;119921;1150;23069;-64